createdAt,value
2024-05-09T00:00:01.041Z,69.89
2024-05-09T00:01:01.359Z,69.89
2024-05-09T00:02:01.705Z,69.78
2024-05-09T00:03:02.003Z,69.78
2024-05-09T00:04:02.462Z,69.78
2024-05-09T00:05:02.767Z,69.71
2024-05-09T00:06:03.117Z,69.81
2024-05-09T00:07:03.196Z,69.71
2024-05-09T00:08:03.546Z,69.51
2024-05-09T00:09:03.850Z,69.40
2024-05-09T00:10:05.541Z,69.51
2024-05-09T00:11:04.535Z,69.51
2024-05-09T00:12:04.761Z,69.51
2024-05-09T00:13:05.288Z,69.61
2024-05-09T00:14:05.310Z,69.51
2024-05-09T00:15:05.566Z,69.40
2024-05-09T00:16:05.917Z,69.30
2024-05-09T00:17:06.317Z,69.40
2024-05-09T00:18:07.608Z,69.40
2024-05-09T00:19:06.867Z,69.51
2024-05-09T00:20:13.988Z,69.61
2024-05-09T00:21:08.546Z,69.81
2024-05-09T00:22:07.558Z,69.92
2024-05-09T00:23:08.183Z,69.92
2024-05-09T00:24:08.152Z,69.84
2024-05-09T00:25:08.420Z,69.95
2024-05-09T00:26:08.764Z,69.84
2024-05-09T00:27:10.089Z,69.95
2024-05-09T00:28:09.305Z,69.95
2024-05-09T00:29:09.635Z,69.95
2024-05-09T00:30:14.377Z,70.15
2024-05-09T00:31:11.166Z,70.26
2024-05-09T00:32:10.558Z,70.26
2024-05-09T00:33:11.730Z,70.36
2024-05-09T00:34:11.165Z,70.36
2024-05-09T00:35:11.221Z,70.36
2024-05-09T00:36:11.532Z,70.26
2024-05-09T00:37:11.842Z,70.26
2024-05-09T00:38:12.189Z,70.15
2024-05-09T00:39:12.358Z,70.26
2024-05-09T00:40:18.717Z,70.15
2024-05-09T00:41:16.353Z,70.15
2024-05-09T00:42:13.328Z,70.05
2024-05-09T00:43:14.773Z,70.05
2024-05-09T00:44:13.948Z,69.95
2024-05-09T00:45:14.209Z,70.05
2024-05-09T00:46:14.562Z,70.15
2024-05-09T00:47:14.963Z,70.05
2024-05-09T00:48:17.737Z,69.95
2024-05-09T00:49:16.619Z,70.15
2024-05-09T00:50:19.584Z,70.26
2024-05-09T00:51:17.080Z,70.36
2024-05-09T00:52:16.302Z,70.39
2024-05-09T00:53:16.643Z,70.60
2024-05-09T00:54:16.913Z,70.60
2024-05-09T00:55:17.243Z,70.60
2024-05-09T00:56:17.591Z,70.60
2024-05-09T00:57:17.752Z,70.50
2024-05-09T00:58:18.067Z,70.50
2024-05-09T00:59:18.416Z,70.50
2024-05-09T01:00:26.867Z,70.50
2024-05-09T01:01:20.086Z,70.50
2024-05-09T01:02:19.347Z,70.60
2024-05-09T01:03:20.399Z,70.70
2024-05-09T01:04:19.953Z,70.70
2024-05-09T01:05:20.155Z,70.70
2024-05-09T01:06:20.439Z,70.70
2024-05-09T01:07:20.767Z,70.60
2024-05-09T01:08:21.315Z,70.60
2024-05-09T01:09:21.394Z,70.60
2024-05-09T01:10:27.974Z,70.60
2024-05-09T01:11:23.032Z,70.50
2024-05-09T01:12:22.380Z,70.50
2024-05-09T01:13:22.500Z,70.39
2024-05-09T01:14:22.900Z,70.39
2024-05-09T01:15:23.056Z,70.50
2024-05-09T01:16:23.373Z,70.50
2024-05-09T01:17:23.775Z,70.39
2024-05-09T01:18:24.199Z,70.39
2024-05-09T01:19:24.491Z,69.98
2024-05-09T01:20:36.455Z,70.22
2024-05-09T01:21:26.044Z,70.32
2024-05-09T01:22:25.209Z,70.42
2024-05-09T01:23:25.639Z,70.42
2024-05-09T01:24:25.801Z,70.53
2024-05-09T01:25:26.108Z,70.63
2024-05-09T01:26:26.466Z,70.73
2024-05-09T01:27:26.785Z,70.63
2024-05-09T01:28:27.105Z,70.73
2024-05-09T01:29:27.407Z,70.63
2024-05-09T01:30:34.098Z,70.73
2024-05-09T01:31:29.102Z,70.73
2024-05-09T01:32:28.377Z,70.73
2024-05-09T01:33:28.542Z,70.73
2024-05-09T01:34:28.745Z,70.84
2024-05-09T01:35:29.200Z,70.94
2024-05-09T01:36:29.388Z,71.04
2024-05-09T01:37:29.709Z,71.08
2024-05-09T01:38:30.131Z,71.17
2024-05-09T01:39:30.354Z,71.17
2024-05-09T01:40:37.268Z,71.28
2024-05-09T01:41:31.929Z,71.38
2024-05-09T01:42:31.185Z,71.38
2024-05-09T01:43:31.478Z,71.59
2024-05-09T01:44:31.852Z,71.59
2024-05-09T01:45:32.115Z,71.69
2024-05-09T01:46:32.490Z,71.59
2024-05-09T01:47:32.994Z,71.48
2024-05-09T01:48:33.202Z,71.38
2024-05-09T01:49:33.455Z,71.28
2024-05-09T01:50:38.769Z,71.17
2024-05-09T01:51:34.939Z,71.28
2024-05-09T01:52:34.161Z,71.17
2024-05-09T01:53:34.505Z,71.08
2024-05-09T01:54:34.749Z,71.08
2024-05-09T01:55:35.117Z,70.97
2024-05-09T01:56:35.453Z,71.08
2024-05-09T01:57:35.724Z,71.38
2024-05-09T01:58:36.043Z,71.79
2024-05-09T01:59:36.395Z,72.20
2024-05-09T02:00:40.632Z,72.20
2024-05-09T02:01:55.740Z,72.41
2024-05-09T02:02:38.315Z,72.72
2024-05-09T02:03:37.616Z,72.51
2024-05-09T02:04:37.797Z,72.72
2024-05-09T02:05:38.111Z,72.72
2024-05-09T02:06:38.291Z,73.02
2024-05-09T02:07:38.564Z,72.92
2024-05-09T02:08:38.963Z,72.72
2024-05-09T02:09:39.131Z,72.82
2024-05-09T02:10:39.507Z,72.72
2024-05-09T02:11:39.962Z,72.72
2024-05-09T02:12:40.073Z,72.72
2024-05-09T02:13:40.386Z,72.72
2024-05-09T02:14:40.727Z,72.85
2024-05-09T02:15:41.024Z,72.85
2024-05-09T02:16:41.299Z,72.96
2024-05-09T02:17:41.884Z,73.06
2024-05-09T02:18:42.080Z,72.65
2024-05-09T02:19:42.266Z,72.75
2024-05-09T02:20:43.433Z,72.55
2024-05-09T02:21:42.884Z,72.75
2024-05-09T02:22:43.249Z,72.96
2024-05-09T02:23:43.617Z,72.96
2024-05-09T02:24:43.874Z,73.06
2024-05-09T02:25:44.186Z,73.06
2024-05-09T02:26:44.460Z,72.99
2024-05-09T02:27:44.776Z,72.99
2024-05-09T02:28:45.062Z,72.99
2024-05-09T02:29:45.325Z,72.99
2024-05-09T02:30:45.672Z,72.89
2024-05-09T02:31:46.123Z,72.89
2024-05-09T02:32:46.520Z,72.78
2024-05-09T02:33:46.898Z,72.68
2024-05-09T02:34:46.951Z,72.78
2024-05-09T02:35:47.187Z,72.89
2024-05-09T02:36:47.526Z,72.99
2024-05-09T02:37:47.979Z,72.89
2024-05-09T02:38:48.155Z,73.09
2024-05-09T02:39:48.451Z,73.30
2024-05-09T02:40:48.798Z,73.50
2024-05-09T02:41:49.115Z,73.71
2024-05-09T02:42:49.433Z,73.81
2024-05-09T02:43:49.742Z,73.71
2024-05-09T02:44:50.030Z,73.61
2024-05-09T02:45:50.363Z,73.50
2024-05-09T02:46:50.727Z,73.40
2024-05-09T02:47:51.083Z,73.19
2024-05-09T02:48:51.390Z,72.99
2024-05-09T02:49:51.544Z,72.89
2024-05-09T02:50:51.978Z,72.78
2024-05-09T02:51:52.219Z,72.68
2024-05-09T02:52:52.546Z,72.61
2024-05-09T02:53:52.814Z,72.61
2024-05-09T02:54:53.202Z,72.51
2024-05-09T02:55:53.587Z,72.51
2024-05-09T02:56:53.808Z,72.51
2024-05-09T02:57:54.065Z,72.41
2024-05-09T02:58:54.456Z,72.51
2024-05-09T02:59:54.707Z,72.51
2024-05-09T03:00:55.088Z,72.51
2024-05-09T03:01:55.466Z,72.51
2024-05-09T03:02:55.780Z,72.72
2024-05-09T03:03:56.233Z,72.81
2024-05-09T03:04:56.458Z,72.92
2024-05-09T03:05:56.664Z,72.92
2024-05-09T03:06:56.875Z,72.92
2024-05-09T03:07:57.178Z,73.13
2024-05-09T03:08:57.454Z,73.13
2024-05-09T03:09:57.774Z,73.13
2024-05-09T03:10:58.087Z,73.13
2024-05-09T03:11:58.312Z,73.13
2024-05-09T03:12:58.568Z,73.02
2024-05-09T03:13:58.852Z,73.02
2024-05-09T03:14:59.152Z,72.92
2024-05-09T03:15:59.480Z,72.92
2024-05-09T03:16:59.814Z,72.72
2024-05-09T03:18:00.239Z,72.72
2024-05-09T03:19:00.417Z,72.72
2024-05-09T03:20:00.684Z,72.72
2024-05-09T03:21:01.068Z,72.72
2024-05-09T03:22:01.103Z,72.75
2024-05-09T03:23:01.520Z,72.75
2024-05-09T03:24:01.702Z,72.85
2024-05-09T03:25:02.010Z,73.16
2024-05-09T03:26:02.305Z,73.16
2024-05-09T03:27:02.484Z,73.06
2024-05-09T03:28:02.713Z,72.92
2024-05-09T03:29:03.038Z,72.92
2024-05-09T03:30:05.504Z,72.81
2024-05-09T03:31:03.450Z,72.81
2024-05-09T03:32:03.831Z,72.81
2024-05-09T03:33:04.305Z,72.81
2024-05-09T03:34:04.854Z,72.72
2024-05-09T03:35:04.685Z,72.51
2024-05-09T03:36:06.900Z,72.30
2024-05-09T03:37:05.269Z,72.30
2024-05-09T03:38:05.719Z,72.20
2024-05-09T03:39:05.884Z,72.20
2024-05-09T03:40:09.127Z,72.09
2024-05-09T05:12:05.441Z,56.75
2024-05-09T05:13:03.990Z,56.95
2024-05-09T05:14:04.524Z,56.82
2024-05-09T05:15:04.618Z,56.62
2024-05-09T05:16:04.932Z,56.82
2024-05-09T05:17:05.197Z,55.81
2024-05-09T05:18:05.640Z,56.29
2024-05-09T05:19:09.025Z,56.47
2024-05-09T05:20:08.554Z,56.04
2024-05-09T05:21:06.344Z,55.37
2024-05-09T05:22:06.594Z,54.57
2024-05-09T05:23:06.852Z,54.03
2024-05-09T05:24:07.078Z,53.80
2024-05-09T05:25:07.362Z,53.22
2024-05-09T05:26:07.822Z,53.32
2024-05-09T05:27:07.934Z,53.72
2024-05-09T05:28:08.138Z,53.70
2024-05-09T05:29:08.570Z,53.60
2024-05-09T05:30:14.726Z,53.34
2024-05-09T05:31:10.075Z,52.74
2024-05-09T05:32:09.321Z,52.31
2024-05-09T05:33:09.714Z,51.98
2024-05-09T05:34:09.884Z,51.55
2024-05-09T05:35:10.270Z,50.92
2024-05-09T05:36:10.376Z,50.59
2024-05-09T05:37:10.595Z,49.58
2024-05-09T05:38:11.105Z,49.69
2024-05-09T05:39:11.144Z,49.79
2024-05-09T05:40:14.662Z,50.09
2024-05-09T05:41:12.830Z,49.64
2024-05-09T05:42:12.054Z,49.11
2024-05-09T05:43:12.318Z,48.58
2024-05-09T05:44:12.623Z,48.38
2024-05-09T05:45:12.844Z,47.86
2024-05-09T05:46:13.099Z,47.75
2024-05-09T05:47:13.582Z,47.66
2024-05-09T05:48:14.135Z,47.96
2024-05-09T05:49:14.265Z,47.94
2024-05-09T05:50:23.812Z,47.13
2024-05-09T05:51:15.785Z,47.31
2024-05-09T05:52:14.996Z,47.11
2024-05-09T05:53:15.651Z,46.88
2024-05-09T05:54:15.501Z,46.18
2024-05-09T05:55:15.952Z,46.48
2024-05-09T05:56:16.104Z,46.36
2024-05-09T05:57:16.304Z,45.73
2024-05-09T05:58:16.799Z,45.53
2024-05-09T05:59:16.925Z,45.21
2024-05-09T06:00:26.083Z,45.01
2024-05-09T06:01:18.591Z,45.01
2024-05-09T06:02:18.088Z,44.59
2024-05-09T06:03:18.158Z,44.28
2024-05-09T06:04:18.602Z,44.48
2024-05-09T06:05:18.786Z,43.98
2024-05-09T06:06:19.020Z,44.36
2024-05-09T06:07:19.320Z,44.14
2024-05-09T06:08:19.608Z,44.14
2024-05-09T06:09:19.912Z,44.24
2024-05-09T06:10:25.475Z,44.52
2024-05-09T06:11:21.608Z,44.32
2024-05-09T06:12:20.920Z,43.82
2024-05-09T06:13:21.082Z,43.92
2024-05-09T06:14:21.472Z,43.72
2024-05-09T06:15:21.561Z,44.42
2024-05-09T06:16:21.790Z,44.00
2024-05-09T06:17:22.317Z,43.50
2024-05-09T06:18:22.531Z,43.60
2024-05-09T06:19:22.785Z,43.42
2024-05-09T06:20:31.775Z,42.91
2024-05-09T06:21:24.281Z,43.32
2024-05-09T06:22:23.434Z,43.10
2024-05-09T06:23:23.875Z,43.52
2024-05-09T06:24:24.105Z,43.72
2024-05-09T06:25:24.296Z,43.60
2024-05-09T06:26:24.582Z,43.22
2024-05-09T06:27:24.795Z,42.91
2024-05-09T06:28:25.166Z,43.02
2024-05-09T06:29:25.395Z,42.74
2024-05-09T06:30:34.452Z,42.72
2024-05-09T06:31:26.856Z,42.44
2024-05-09T06:32:26.306Z,43.04
2024-05-09T06:33:26.778Z,43.44
2024-05-09T06:34:26.961Z,43.44
2024-05-09T06:35:27.022Z,43.94
2024-05-09T06:36:27.269Z,44.44
2024-05-09T06:37:27.501Z,43.94
2024-05-09T06:38:27.831Z,43.54
2024-05-09T06:39:28.066Z,43.48
2024-05-09T06:40:36.711Z,44.31
2024-05-09T06:41:29.661Z,44.73
2024-05-09T06:42:28.868Z,45.15
2024-05-09T06:43:29.094Z,45.78
2024-05-09T06:44:29.573Z,45.78
2024-05-09T06:45:29.707Z,46.00
2024-05-09T06:46:29.986Z,46.53
2024-05-09T06:47:30.392Z,46.55
2024-05-09T06:48:30.650Z,47.38
2024-05-09T06:49:30.942Z,48.41
2024-05-09T06:50:37.020Z,49.24
2024-05-09T06:51:32.356Z,50.09
2024-05-09T06:52:31.642Z,50.12
2024-05-09T06:53:32.016Z,50.64
2024-05-09T06:54:32.264Z,50.67
2024-05-09T06:55:32.490Z,51.30
2024-05-09T06:56:33.031Z,51.22
2024-05-09T06:57:33.291Z,51.25
2024-05-09T06:58:33.505Z,51.78
2024-05-09T06:59:33.841Z,52.48
2024-05-09T07:00:38.685Z,53.12
2024-05-09T07:01:35.370Z,53.72
2024-05-09T07:02:34.758Z,54.05
2024-05-09T07:03:35.022Z,54.66
2024-05-09T07:04:35.212Z,55.07
2024-05-09T07:05:35.540Z,54.90
2024-05-09T07:06:35.778Z,55.30
2024-05-09T07:07:36.021Z,55.50
2024-05-09T07:08:36.451Z,56.01
2024-05-09T07:09:36.520Z,55.53
2024-05-09T07:10:37.325Z,55.83
2024-05-09T07:11:37.246Z,56.26
2024-05-09T07:12:37.485Z,56.57
2024-05-09T07:13:37.767Z,57.48
2024-05-09T07:14:38.634Z,57.48
2024-05-09T07:15:38.344Z,56.06
2024-05-09T07:16:38.558Z,56.67
2024-05-09T07:17:39.451Z,56.37
2024-05-09T07:18:39.372Z,56.26
2024-05-09T07:19:39.385Z,56.37
2024-05-09T07:20:39.808Z,57.08
2024-05-09T07:21:39.907Z,57.68
2024-05-09T07:22:40.130Z,57.99
2024-05-09T07:23:42.484Z,57.08
2024-05-09T07:24:40.842Z,56.34
2024-05-09T07:25:41.122Z,56.24
2024-05-09T07:26:41.465Z,55.73
2024-05-09T07:27:41.628Z,56.13
2024-05-09T07:28:41.827Z,55.53
2024-05-09T07:29:42.145Z,55.53
2024-05-09T07:30:42.322Z,55.12
2024-05-09T07:31:42.586Z,54.92
2024-05-09T07:32:42.892Z,55.30
2024-05-09T07:33:43.270Z,55.40
2024-05-09T07:34:43.496Z,55.80
2024-05-09T07:35:43.856Z,55.40
2024-05-09T07:36:44.037Z,55.10
2024-05-09T07:37:44.267Z,54.99
2024-05-09T07:38:44.592Z,53.67
2024-05-09T07:39:44.839Z,54.18
2024-05-09T07:40:45.216Z,53.67
2024-05-09T07:41:45.482Z,53.67
2024-05-09T07:42:45.725Z,53.78
2024-05-09T07:43:45.987Z,53.98
2024-05-09T07:44:47.134Z,53.88
2024-05-09T07:45:58.243Z,54.08
2024-05-09T07:47:48.556Z,54.18
2024-05-09T07:49:13.248Z,54.28
2024-05-09T07:51:32.594Z,54.28
2024-05-09T07:53:17.416Z,54.99
2024-05-09T07:53:35.024Z,54.59
2024-05-09T07:53:52.522Z,53.98
2024-05-09T07:54:50.251Z,52.97
2024-05-09T07:55:49.425Z,52.86
2024-05-09T07:56:49.904Z,53.19
2024-05-09T07:57:49.966Z,53.60
2024-05-09T07:58:50.278Z,54.11
2024-05-09T07:59:50.473Z,53.91
2024-05-09T08:00:50.771Z,54.41
2024-05-09T08:01:51.080Z,54.21
2024-05-09T08:02:51.383Z,54.41
2024-05-09T08:03:51.779Z,54.61
2024-05-09T08:04:52.016Z,54.99
2024-05-09T08:05:52.324Z,54.99
2024-05-09T08:06:52.452Z,54.49
2024-05-09T08:07:52.684Z,54.49
2024-05-09T08:08:53.065Z,54.99
2024-05-09T08:09:54.069Z,53.75
2024-05-09T08:10:53.695Z,53.04
2024-05-09T08:11:53.847Z,52.76
2024-05-09T08:12:54.158Z,52.94
2024-05-09T08:13:54.467Z,52.64
2024-05-09T08:14:54.899Z,51.95
2024-05-09T08:15:54.966Z,52.46
2024-05-09T08:16:55.238Z,52.33
2024-05-09T08:17:55.512Z,51.32
2024-05-09T08:18:55.960Z,51.01
2024-05-09T08:19:55.997Z,51.52
2024-05-09T08:20:56.236Z,51.32
2024-05-09T08:21:56.526Z,51.62
2024-05-09T08:22:56.744Z,52.23
2024-05-09T08:23:56.985Z,53.25
2024-05-09T08:24:57.339Z,52.94
2024-05-09T08:25:57.593Z,52.94
2024-05-09T08:26:57.856Z,53.65
2024-05-09T08:29:18.216Z,53.25
2024-05-09T08:30:25.355Z,54.26
2024-05-09T08:31:19.611Z,53.85
2024-05-09T08:32:22.235Z,53.75
2024-05-09T08:33:19.501Z,53.45
2024-05-09T08:34:19.546Z,53.93
2024-05-09T08:35:19.754Z,53.72
2024-05-09T08:36:20.049Z,53.52
2024-05-09T08:37:23.418Z,53.32
2024-05-09T08:38:21.512Z,54.13
2024-05-09T08:39:20.904Z,55.37
2024-05-09T08:40:30.538Z,55.37
2024-05-09T08:41:22.652Z,54.53
2024-05-09T08:42:21.783Z,53.96
2024-05-09T08:43:22.138Z,53.75
2024-05-09T08:44:22.398Z,54.05
2024-05-09T08:45:22.607Z,54.66
2024-05-09T08:46:23.123Z,55.04
2024-05-09T08:47:23.374Z,54.74
2024-05-09T08:48:23.705Z,54.33
2024-05-09T08:49:23.756Z,54.84
2024-05-09T08:50:32.002Z,55.45
2024-05-09T08:51:25.263Z,55.25
2024-05-09T08:52:24.572Z,54.74
2024-05-09T08:53:24.845Z,54.44
2024-05-09T08:54:25.240Z,54.92
2024-05-09T08:55:25.812Z,55.12
2024-05-09T08:56:25.732Z,55.02
2024-05-09T08:57:25.973Z,55.02
2024-05-09T08:58:26.149Z,53.70
2024-05-09T08:59:26.624Z,53.91
2024-05-09T09:00:35.544Z,52.99
2024-05-09T09:01:27.923Z,53.19
2024-05-09T09:02:27.192Z,53.80
2024-05-09T09:03:27.572Z,53.50
2024-05-09T09:04:27.720Z,53.30
2024-05-09T09:05:28.161Z,53.40
2024-05-09T09:06:28.268Z,53.70
2024-05-09T09:07:28.625Z,55.10
2024-05-09T09:08:28.775Z,54.38
2024-05-09T09:09:29.124Z,54.38
2024-05-09T09:10:32.246Z,53.67
2024-05-09T09:11:29.565Z,55.10
2024-05-09T09:12:29.835Z,55.80
2024-05-09T09:13:30.078Z,54.56
2024-05-09T09:14:30.395Z,54.66
2024-05-09T09:15:30.740Z,54.76
2024-05-09T09:16:31.028Z,53.85
2024-05-09T09:17:31.195Z,54.26
2024-05-09T09:18:31.747Z,54.86
2024-05-09T09:19:31.827Z,54.13
2024-05-09T09:20:36.454Z,52.64
2024-05-09T09:21:33.173Z,52.64
2024-05-09T09:22:32.457Z,53.65
2024-05-09T09:23:32.760Z,53.65
2024-05-09T09:24:33.064Z,53.55
2024-05-09T09:25:33.471Z,52.84
2024-05-09T09:26:33.551Z,52.33
2024-05-09T09:27:33.895Z,52.64
2024-05-09T09:28:34.131Z,53.55
2024-05-09T09:29:34.430Z,53.14
2024-05-09T09:30:37.680Z,53.25
2024-05-09T09:31:35.119Z,52.33
2024-05-09T09:32:35.431Z,52.84
2024-05-09T09:33:36.238Z,52.74
2024-05-09T09:34:35.961Z,53.72
2024-05-09T09:35:36.206Z,53.32
2024-05-09T09:36:36.562Z,52.21
2024-05-09T09:37:36.866Z,52.92
2024-05-09T09:38:37.139Z,53.02
2024-05-09T09:39:37.415Z,51.90
2024-05-09T09:40:42.485Z,52.21
2024-05-09T09:41:38.958Z,52.92
2024-05-09T09:42:38.428Z,52.11
2024-05-09T09:43:38.500Z,52.11
2024-05-09T09:44:42.129Z,51.60
2024-05-09T09:45:39.137Z,52.11
2024-05-09T09:46:39.584Z,52.01
2024-05-09T09:47:39.777Z,51.70
2024-05-09T09:48:40.129Z,51.60
2024-05-09T09:49:40.296Z,50.69
2024-05-09T09:50:40.471Z,50.69
2024-05-09T09:51:40.784Z,52.01
2024-05-09T09:52:41.059Z,51.78
2024-05-09T09:53:41.285Z,50.67
2024-05-09T09:54:41.680Z,49.66
2024-05-09T09:55:41.783Z,49.66
2024-05-09T09:56:42.094Z,49.84
2024-05-09T09:57:42.399Z,49.73
2024-05-09T09:58:42.669Z,50.14
2024-05-09T09:59:42.939Z,50.04
2024-05-09T10:00:43.565Z,50.04
2024-05-09T10:01:43.644Z,49.63
2024-05-09T10:02:43.809Z,49.91
2024-05-09T10:03:44.204Z,50.32
2024-05-09T10:04:44.547Z,49.61
2024-05-09T10:05:47.045Z,49.81
2024-05-09T10:06:44.827Z,49.71
2024-05-09T10:07:45.035Z,49.91
2024-05-09T10:08:45.294Z,49.51
2024-05-09T10:09:45.658Z,49.30
2024-05-09T10:10:46.091Z,49.53
2024-05-09T10:11:51.799Z,50.04
2024-05-09T10:12:47.381Z,50.04
2024-05-09T10:13:46.677Z,50.34
2024-05-09T10:14:46.929Z,51.43
2024-05-09T10:15:47.322Z,50.52
2024-05-09T10:16:47.524Z,50.01
2024-05-09T10:17:47.827Z,50.42
2024-05-09T10:18:48.232Z,50.62
2024-05-09T10:19:48.541Z,49.93
2024-05-09T10:20:48.776Z,49.84
2024-05-09T10:21:49.044Z,49.73
2024-05-09T10:22:49.318Z,50.24
2024-05-09T10:23:49.573Z,50.04
2024-05-09T10:24:49.831Z,50.44
2024-05-09T10:25:50.098Z,50.34
2024-05-09T10:26:50.324Z,50.82
2024-05-09T10:27:50.618Z,50.52
2024-05-09T10:28:50.858Z,50.62
2024-05-09T10:29:51.155Z,51.23
2024-05-09T10:30:51.413Z,51.40
2024-05-09T10:31:51.680Z,51.61
2024-05-09T10:32:51.938Z,51.20
2024-05-09T10:33:53.059Z,50.98
2024-05-09T10:34:52.422Z,51.98
2024-05-09T10:35:52.666Z,51.89
2024-05-09T10:36:53.118Z,50.85
2024-05-09T10:37:53.293Z,50.75
2024-05-09T10:38:53.631Z,50.12
2024-05-09T10:39:53.929Z,49.21
2024-05-09T10:40:54.104Z,50.32
2024-05-09T10:41:54.483Z,50.32
2024-05-09T10:42:54.903Z,49.72
2024-05-09T10:43:54.954Z,48.61
2024-05-09T10:44:55.192Z,48.41
2024-05-09T10:45:55.659Z,47.90
2024-05-09T10:46:55.841Z,47.60
2024-05-09T10:47:56.186Z,47.52
2024-05-09T10:48:56.323Z,47.82
2024-05-09T10:49:56.591Z,47.62
2024-05-09T10:50:56.838Z,47.92
2024-05-09T10:51:57.150Z,47.72
2024-05-09T10:52:57.400Z,48.33
2024-05-09T10:53:57.633Z,48.53
2024-05-09T10:54:57.970Z,48.63
2024-05-09T10:55:58.227Z,47.62
2024-05-09T10:56:58.451Z,47.32
2024-05-09T10:57:58.773Z,47.72
2024-05-09T10:58:58.965Z,48.13
2024-05-09T10:59:59.367Z,47.32
2024-05-09T11:01:01.173Z,46.92
2024-05-09T11:01:59.980Z,47.32
2024-05-09T11:03:00.322Z,46.92
2024-05-09T11:04:00.707Z,47.22
2024-05-09T11:05:01.019Z,47.52
2024-05-09T11:06:01.098Z,47.52
2024-05-09T11:07:04.578Z,47.32
2024-05-09T11:08:01.713Z,48.33
2024-05-09T11:09:01.968Z,48.43
2024-05-09T11:10:02.266Z,48.25
2024-05-09T11:11:02.505Z,48.25
2024-05-09T11:12:02.825Z,47.44
2024-05-09T11:13:03.088Z,47.34
2024-05-09T11:14:03.322Z,47.24
2024-05-09T11:15:03.561Z,47.24
2024-05-09T11:16:03.926Z,47.44
2024-05-09T11:17:04.201Z,47.95
2024-05-09T11:18:04.442Z,48.55
2024-05-09T11:19:04.855Z,48.75
2024-05-09T11:20:13.289Z,48.45
2024-05-09T11:21:06.160Z,48.75
2024-05-09T11:22:05.466Z,47.64
2024-05-09T11:23:05.676Z,48.02
2024-05-09T11:24:08.685Z,48.83
2024-05-09T11:25:06.395Z,49.24
2024-05-09T11:26:06.501Z,48.22
2024-05-09T11:27:06.787Z,47.50
2024-05-09T11:28:07.119Z,47.09
2024-05-09T11:29:07.328Z,46.59
2024-05-09T11:30:14.169Z,46.79
2024-05-09T11:31:09.862Z,47.09
2024-05-09T11:32:08.220Z,47.07
2024-05-09T11:33:08.435Z,47.38
2024-05-09T11:34:08.727Z,47.58
2024-05-09T11:35:08.953Z,47.98
2024-05-09T11:36:09.232Z,48.06
2024-05-09T11:37:09.536Z,46.77
2024-05-09T11:38:09.788Z,46.55
2024-05-09T11:39:10.001Z,45.64
2024-05-09T11:40:16.827Z,45.84
2024-05-09T11:41:11.657Z,45.84
2024-05-09T11:42:10.816Z,46.55
2024-05-09T11:43:11.080Z,46.34
2024-05-09T11:44:11.325Z,45.84
2024-05-09T11:45:11.527Z,46.45
2024-05-09T11:46:11.985Z,45.94
2024-05-09T11:47:12.141Z,45.94
2024-05-09T11:48:12.479Z,45.84
2024-05-09T11:49:12.967Z,46.75
2024-05-09T11:50:19.528Z,46.34
2024-05-09T11:51:14.406Z,46.83
2024-05-09T11:52:13.804Z,46.02
2024-05-09T11:53:14.061Z,45.62
2024-05-09T11:54:14.302Z,44.41
2024-05-09T11:55:14.738Z,45.01
2024-05-09T11:56:14.888Z,45.21
2024-05-09T11:57:15.217Z,44.41
2024-05-09T11:58:15.700Z,45.62
2024-05-09T11:59:15.800Z,45.29
2024-05-09T12:00:24.528Z,45.00
2024-05-09T12:01:17.442Z,46.00
2024-05-09T12:02:18.967Z,45.29
2024-05-09T12:03:17.018Z,44.27
2024-05-09T12:04:17.405Z,43.66
2024-05-09T12:05:17.652Z,44.17
2024-05-09T12:06:18.199Z,44.77
2024-05-09T12:07:17.931Z,44.57
2024-05-09T12:08:18.246Z,44.37
2024-05-09T12:09:18.478Z,45.27
2024-05-09T12:10:22.433Z,44.07
2024-05-09T12:11:20.054Z,44.67
2024-05-09T12:12:19.324Z,44.77
2024-05-09T12:13:19.790Z,44.67
2024-05-09T12:14:19.864Z,44.17
2024-05-09T12:15:20.162Z,44.07
2024-05-09T12:16:20.691Z,43.96
2024-05-09T12:17:20.852Z,44.27
2024-05-09T12:18:21.161Z,43.96
2024-05-09T12:19:22.433Z,43.66
2024-05-09T12:20:32.408Z,43.46
2024-05-09T12:21:23.105Z,43.87
2024-05-09T12:22:22.151Z,43.36
2024-05-09T12:23:22.414Z,44.07
2024-05-09T12:24:22.658Z,44.37
2024-05-09T12:25:23.020Z,44.87
2024-05-09T12:26:23.132Z,44.07
2024-05-09T12:27:23.329Z,43.87
2024-05-09T12:28:23.725Z,43.87
2024-05-09T12:29:23.939Z,42.76
2024-05-09T12:30:33.274Z,42.46
2024-05-09T12:31:25.641Z,42.96
2024-05-09T12:32:24.868Z,43.56
2024-05-09T12:33:25.308Z,43.16
2024-05-09T12:34:25.477Z,42.96
2024-05-09T12:35:25.746Z,43.36
2024-05-09T12:36:25.970Z,43.76
2024-05-09T12:37:26.233Z,43.36
2024-05-09T12:38:26.400Z,42.86
2024-05-09T12:39:26.663Z,42.15
2024-05-09T12:40:35.338Z,42.55
2024-05-09T12:41:28.349Z,43.36
2024-05-09T12:42:29.084Z,42.66
2024-05-09T12:43:28.037Z,42.66
2024-05-09T12:44:28.165Z,42.05
2024-05-09T12:45:28.549Z,43.06
2024-05-09T12:46:28.976Z,42.35
2024-05-09T12:47:29.238Z,42.55
2024-05-09T12:48:29.884Z,42.55
2024-05-09T12:49:29.816Z,42.66
2024-05-09T12:50:33.271Z,42.55
2024-05-09T12:51:30.381Z,42.35
2024-05-09T12:52:30.601Z,42.05
2024-05-09T12:53:30.826Z,41.95
2024-05-09T12:54:31.138Z,41.05
2024-05-09T12:55:37.350Z,41.85
2024-05-09T12:56:32.725Z,41.85
2024-05-09T12:57:32.025Z,41.85
2024-05-09T12:58:32.227Z,42.05
2024-05-09T12:59:32.455Z,40.84
2024-05-09T13:00:34.321Z,40.36
2024-05-09T13:01:33.102Z,40.06
2024-05-09T13:02:33.363Z,39.56
2024-05-09T13:03:33.673Z,39.56
2024-05-09T13:04:34.088Z,40.06
2024-05-09T13:05:34.311Z,40.46
2024-05-09T13:06:34.519Z,40.56
2024-05-09T13:07:34.731Z,40.97
2024-05-09T13:08:35.082Z,42.47
2024-05-09T13:09:35.369Z,40.56
2024-05-09T13:10:35.743Z,40.56
2024-05-09T13:11:35.975Z,40.77
2024-05-09T13:12:36.272Z,40.95
2024-05-09T13:13:36.480Z,40.64
2024-05-09T13:14:36.723Z,40.14
2024-05-09T13:15:37.033Z,40.34
2024-05-09T13:16:37.340Z,40.75
2024-05-09T13:17:37.667Z,40.55
2024-05-09T13:18:38.048Z,40.84
2024-05-09T13:19:38.251Z,40.34
2024-05-09T13:20:38.496Z,40.34
2024-05-09T13:21:38.795Z,40.75
2024-05-09T13:22:39.015Z,40.34
2024-05-09T13:23:39.234Z,40.34
2024-05-09T13:24:39.475Z,41.25
2024-05-09T13:25:39.738Z,41.45
2024-05-09T13:26:39.951Z,41.25
2024-05-09T13:27:40.228Z,41.45
2024-05-09T13:28:40.643Z,40.44
2024-05-09T13:29:42.788Z,40.64
2024-05-09T13:30:42.299Z,40.44
2024-05-09T13:31:41.452Z,40.14
2024-05-09T13:32:41.794Z,41.15
2024-05-09T13:33:42.219Z,40.34
2024-05-09T13:34:42.411Z,40.34
2024-05-09T13:35:47.124Z,41.35
2024-05-09T13:36:43.892Z,42.55
2024-05-09T13:37:43.119Z,41.55
2024-05-09T13:38:43.397Z,41.45
2024-05-09T13:39:43.642Z,40.55
2024-05-09T13:40:44.194Z,41.35
2024-05-09T13:41:44.149Z,41.05
2024-05-09T13:42:45.660Z,40.55
2024-05-09T13:43:44.713Z,41.35
2024-05-09T13:44:44.966Z,42.25
2024-05-09T13:45:45.292Z,41.65
2024-05-09T13:46:45.589Z,41.75
2024-05-09T13:47:45.870Z,42.13
2024-05-09T13:48:46.220Z,42.03
2024-05-09T13:49:46.471Z,41.13
2024-05-09T13:50:46.750Z,40.73
2024-05-09T13:51:47.068Z,40.73
2024-05-09T13:52:47.263Z,40.62
2024-05-09T13:53:47.511Z,41.23
2024-05-09T13:54:47.771Z,42.33
2024-05-09T13:55:47.937Z,43.14
2024-05-09T13:56:48.228Z,42.84
2024-05-09T13:57:48.547Z,43.14
2024-05-09T13:58:48.747Z,43.34
2024-05-09T13:59:48.973Z,41.85
2024-05-09T14:00:49.766Z,41.95
2024-05-09T14:01:49.863Z,41.85
2024-05-09T14:02:50.087Z,42.55
2024-05-09T14:03:50.474Z,43.16
2024-05-09T14:04:50.773Z,42.46
2024-05-09T14:05:51.953Z,41.85
2024-05-09T14:06:51.190Z,41.95
2024-05-09T14:07:51.496Z,41.55
2024-05-09T14:08:51.766Z,42.35
2024-05-09T14:09:52.142Z,41.85
2024-05-09T14:10:52.654Z,42.35
2024-05-09T14:11:52.713Z,41.85
2024-05-09T14:12:52.955Z,41.75
2024-05-09T14:13:53.132Z,42.05
2024-05-09T14:14:53.380Z,42.96
2024-05-09T14:15:53.904Z,42.35
2024-05-09T14:16:53.966Z,41.85
2024-05-09T14:17:54.412Z,41.85
2024-05-09T14:18:54.584Z,42.25
2024-05-09T14:19:54.861Z,42.15
2024-05-09T14:20:55.098Z,42.25
2024-05-09T14:21:55.396Z,41.55
2024-05-09T14:22:55.589Z,42.46
2024-05-09T14:23:56.242Z,42.25
2024-05-09T14:24:56.214Z,42.54
2024-05-09T14:25:56.518Z,42.24
2024-05-09T14:26:56.788Z,41.93
2024-05-09T14:27:57.332Z,41.33
2024-05-09T14:29:00.934Z,41.23
2024-05-09T14:33:23.678Z,41.55